»·PEaware :: N4657 L77-KSAN

N4657 :: L77-KSAN

FLIGHT INFORMATION

Flight Status: Arrived
Operator: Privately registered:
United States
More flights under this callsign
Pilot: Daniel P. (20187)
Aircraft: PILATUS PC-12 EAGLE
(PC12)
More flights by this aircraft type
Origin: L77 Chiriaco Summit
United States
Destination: KSAN San Diego Intl-Lindbergh
United States
More flights between these airports :: More routes between these airports
Route: HENOM V460 RYAHH
File this flight plan on PilotEdge
Remarks:
Altitude:
(Current/Filed)
105ft
Speed:
(Current/Filed)
200kts
Departed: 30-Sep-18 10:18 AM
Arrived: 30-Sep-18 10:52 AM
Distance/Time
Traveled:
94nm/0:33
Distance/Time
To Go:
Arrived

Flight Plot

Page will automatically refresh every two minutes.

Flight plan parsing failed; only flown route is shown


Map Options




Map Legend


Flown Route
Filed Route
Departure Airport
Arrival Airport
Navaid (VOR, NDB)
Fix

Horizontal Profiles

Position Reports

Time Latitude Longitude Heading Altitude Ground
Speed
30-Sep-18 09:57 33.661813 -115.719369 85 1707ft 0kts
30-Sep-18 09:58 33.661813 -115.719369 85 1707ft 0kts
30-Sep-18 09:59 33.661813 -115.719369 85 1707ft 0kts
30-Sep-18 10:00 33.661813 -115.719369 85 1707ft 0kts
30-Sep-18 10:01 33.661813 -115.719369 85 1707ft 0kts
30-Sep-18 10:02 33.661813 -115.719369 85 1707ft 0kts
30-Sep-18 10:03 33.661813 -115.719369 85 1707ft 0kts
30-Sep-18 10:04 33.661813 -115.719369 85 1707ft 0kts
30-Sep-18 10:05 33.661813 -115.719369 85 1707ft 0kts
30-Sep-18 10:06 33.661813 -115.719369 85 1707ft 0kts
30-Sep-18 10:07 33.661813 -115.719369 85 1707ft 0kts
30-Sep-18 10:08 33.661813 -115.719369 85 1707ft 0kts
30-Sep-18 10:09 33.661813 -115.719368 85 1707ft 0kts
30-Sep-18 10:10 33.661813 -115.719368 85 1707ft 0kts
30-Sep-18 10:11 33.661813 -115.719368 85 1707ft 0kts
30-Sep-18 10:12 33.661813 -115.719368 85 1707ft 0kts
30-Sep-18 10:13 33.661813 -115.719368 85 1707ft 0kts
30-Sep-18 10:14 33.661813 -115.719368 85 1707ft 0kts
30-Sep-18 10:15 33.661895 -115.719209 77 1707ft 5kts
30-Sep-18 10:16 33.663337 -115.719351 79 1710ft 9kts
30-Sep-18 10:17 33.663488 -115.718409 80 1710ft 0kts
30-Sep-18 10:18 33.663489 -115.718403 81 1710ft 1kts
30-Sep-18 10:19 33.663489 -115.718402 81 1710ft 0kts
30-Sep-18 10:20 33.664610 -115.711701 79 1702ft 100kts
30-Sep-18 10:21 33.659919 -115.678060 183 3812ft 139kts
30-Sep-18 10:22 33.644922 -115.729486 244 5388ft 205kts
30-Sep-18 10:23 33.614862 -115.791454 229 6410ft 222kts
30-Sep-18 10:24 33.577888 -115.851473 228 7411ft 225kts
30-Sep-18 10:25 33.540369 -115.910823 228 8405ft 224kts
30-Sep-18 10:26 33.504787 -115.967112 227 9387ft 202kts
30-Sep-18 10:27 33.471852 -116.018871 227 10374ft 192kts
30-Sep-18 10:28 33.435531 -116.064153 221 10889ft 203kts
30-Sep-18 10:29 33.394161 -116.114936 221 10448ft 217kts
30-Sep-18 10:30 33.352842 -116.165404 221 10471ft 211kts
30-Sep-18 10:31 33.313430 -116.213435 221 10484ft 210kts
30-Sep-18 10:32 33.272755 -116.262957 221 10483ft 210kts
30-Sep-18 10:33 33.232860 -116.311462 221 10483ft 210kts
30-Sep-18 10:34 33.194875 -116.357584 221 10483ft 209kts
30-Sep-18 10:35 33.155128 -116.405778 221 10483ft 209kts
30-Sep-18 10:36 33.114896 -116.454464 222 10499ft 209kts
30-Sep-18 10:37 33.074578 -116.503259 221 10531ft 211kts
30-Sep-18 10:38 33.034443 -116.551734 221 10552ft 213kts
30-Sep-18 10:39 32.993998 -116.600501 221 10490ft 218kts
30-Sep-18 10:40 32.949015 -116.645637 214 10172ft 219kts
30-Sep-18 10:41 32.906220 -116.684351 214 9319ft 204kts
30-Sep-18 10:42 32.863194 -116.722992 214 8456ft 199kts
30-Sep-18 10:43 32.821477 -116.760414 216 7570ft 180kts
30-Sep-18 10:44 32.781863 -116.795856 218 6691ft 184kts
30-Sep-18 10:45 32.742276 -116.831641 215 5821ft 194kts
30-Sep-18 10:46 32.698664 -116.870413 215 5016ft 198kts
30-Sep-18 10:47 32.675363 -116.923024 251 4485ft 179kts
30-Sep-18 10:48 32.680844 -116.973535 287 3718ft 158kts
30-Sep-18 10:49 32.692530 -117.021221 287 2937ft 154kts
30-Sep-18 10:50 32.704481 -117.070324 286 2199ft 160kts
30-Sep-18 10:51 32.715886 -117.116996 286 1321ft 142kts
30-Sep-18 10:52 32.725759 -117.157820 286 503ft 110kts
30-Sep-18 10:53 32.733355 -117.188839 285 17ft 63kts
30-Sep-18 10:54 32.733295 -117.191639 204 17ft 0kts
30-Sep-18 10:55 32.733295 -117.191639 204 17ft 0kts
30-Sep-18 10:56 32.733295 -117.191639 204 17ft 0kts
30-Sep-18 10:57 32.733295 -117.191639 204 17ft 0kts
30-Sep-18 10:58 32.733227 -117.191692 223 17ft 5kts
30-Sep-18 10:59 32.734017 -117.195887 285 15ft 17kts
30-Sep-18 11:00 32.735404 -117.201522 290 14ft 15kts
30-Sep-18 11:01 32.734668 -117.205511 193 14ft 15kts
30-Sep-18 11:02 32.733888 -117.206170 60 14ft 0kts
30-Sep-18 11:03 32.733888 -117.206171 60 14ft 0kts

Navigation Log

Ident Type
Flight plan parsing failed, navigation log unavailable